Time;durP1;ratioP1;P1;durP2;ratioP2;P2;SDS_P1;SDS_P2;PMS_P1;PMS_P2;Temp;Humidity;BMP_temperature;BMP_pressure;BME280_temperature;BME280_humidity;BME280_pressure;Samples;Min_cycle;Max_cycle;Signal;HPM_P1;HPM_P2
2021/09/07 00:01:04;;;;;;;16.00;9.87;;;;;;;;;;5015360;28;20414;-63
2021/09/07 00:03:30;;;;;;;11.13;8.60;;;;;;;;;;5028738;28;20429;-63
2021/09/07 00:05:56;;;;;;;12.77;9.40;;;;;;;;;;5034787;28;20791;-65
2021/09/07 00:08:22;;;;;;;14.60;10.60;;;;;;;;;;5032997;28;20482;-63
2021/09/07 00:10:48;;;;;;;14.97;9.97;;;;;;;;;;5034785;28;20455;-63
2021/09/07 00:13:14;;;;;;;12.23;9.10;;;;;;;;;;5022541;28;20427;-63
2021/09/07 00:15:40;;;;;;;13.80;10.10;;;;;;;;;;5014633;28;20432;-63
2021/09/07 00:18:06;;;;;;;14.83;10.60;;;;;;;;;;5021704;28;20430;-63
2021/09/07 00:20:32;;;;;;;13.00;9.00;;;;;;;;;;5034612;28;20436;-63
2021/09/07 00:22:58;;;;;;;14.30;10.23;;;;;;;;;;5033745;28;20427;-63
2021/09/07 00:25:24;;;;;;;12.80;9.83;;;;;;;;;;5016561;28;20551;-63
2021/09/07 00:27:50;;;;;;;17.47;11.57;;;;;;;;;;5021913;28;20440;-62
2021/09/07 00:30:16;;;;;;;11.80;9.33;;;;;;;;;;5034227;28;20907;-63
2021/09/07 00:32:42;;;;;;;13.47;10.33;;;;;;;;;;5025342;28;20538;-62
2021/09/07 00:35:11;;;;;;;17.70;9.17;;;;;;;;;;5014332;28;20515;-63
2021/09/07 00:37:37;;;;;;;13.07;10.20;;;;;;;;;;5014687;28;20419;-63
2021/09/07 00:40:04;;;;;;;14.93;8.87;;;;;;;;;;5014578;28;20440;-63
2021/09/07 00:42:34;;;;;;;13.00;9.37;;;;;;;;;;5018065;28;20433;-63
2021/09/07 00:45:00;;;;;;;17.87;11.60;;;;;;;;;;5033987;28;20768;-62
2021/09/07 00:47:26;;;;;;;13.73;9.50;;;;;;;;;;5027504;28;20486;-62
2021/09/07 00:49:52;;;;;;;14.07;9.60;;;;;;;;;;5014059;28;20403;-63
2021/09/07 00:52:18;;;;;;;14.90;10.07;;;;;;;;;;5015635;28;20466;-63
2021/09/07 00:54:46;;;;;;;12.87;9.00;;;;;;;;;;5033807;28;20458;-63
2021/09/07 00:57:12;;;;;;;14.80;9.80;;;;;;;;;;5030771;28;20435;-62
2021/09/07 00:59:38;;;;;;;14.83;10.37;;;;;;;;;;5033590;28;20961;-63
2021/09/07 01:02:05;;;;;;;14.60;9.53;;;;;;;;;;5033132;28;20421;-63
2021/09/07 01:04:40;;;;;;;14.57;10.30;;;;;;;;;;5014383;28;20753;-62
2021/09/07 01:07:06;;;;;;;11.47;9.57;;;;;;;;;;5016345;28;20458;-62
2021/09/07 01:09:32;;;;;;;13.80;10.03;;;;;;;;;;5032842;28;20434;-63
2021/09/07 01:11:58;;;;;;;15.80;10.93;;;;;;;;;;5033585;28;20508;-63
2021/09/07 01:14:28;;;;;;;16.63;10.20;;;;;;;;;;5014827;28;20931;-63
2021/09/07 01:16:54;;;;;;;15.93;9.20;;;;;;;;;;5033497;28;20429;-63
2021/09/07 01:19:20;;;;;;;13.97;9.00;;;;;;;;;;5032401;28;20426;-63
2021/09/07 01:21:46;;;;;;;13.30;9.63;;;;;;;;;;5031187;28;20945;-63
2021/09/07 01:24:12;;;;;;;13.80;9.43;;;;;;;;;;5019167;28;20518;-63
2021/09/07 01:26:38;;;;;;;14.40;9.73;;;;;;;;;;5013472;28;20494;-63
2021/09/07 01:29:05;;;;;;;11.60;8.57;;;;;;;;;;5025613;28;20458;-62
2021/09/07 01:31:31;;;;;;;11.00;9.00;;;;;;;;;;5033214;28;20504;-64
2021/09/07 01:33:57;;;;;;;15.20;10.67;;;;;;;;;;5021492;28;20494;-62
2021/09/07 01:36:23;;;;;;;17.97;10.33;;;;;;;;;;5013534;28;20423;-63
2021/09/07 01:38:49;;;;;;;14.37;9.73;;;;;;;;;;5022158;28;20427;-63
2021/09/07 01:41:15;;;;;;;21.23;10.70;;;;;;;;;;5033529;28;20403;-63
2021/09/07 01:43:47;;;;;;;14.40;9.93;;;;;;;;;;5014591;28;20504;-63
2021/09/07 01:46:13;;;;;;;17.30;11.20;;;;;;;;;;5033429;28;20514;-63
2021/09/07 01:48:39;;;;;;;14.70;10.07;;;;;;;;;;5032178;28;20938;-63
2021/09/07 01:51:05;;;;;;;23.30;10.83;;;;;;;;;;5015360;28;20458;-62
2021/09/07 01:53:31;;;;;;;13.27;9.60;;;;;;;;;;5032180;28;20431;-63
2021/09/07 01:55:57;;;;;;;15.07;11.10;;;;;;;;;;5033512;28;20427;-63
2021/09/07 01:58:23;;;;;;;17.60;11.33;;;;;;;;;;5026898;28;20431;-63
2021/09/07 02:00:49;;;;;;;19.87;10.47;;;;;;;;;;5013570;28;20407;-63
2021/09/07 02:03:15;;;;;;;11.83;9.47;;;;;;;;;;5017617;28;20419;-63
2021/09/07 02:05:41;;;;;;;14.60;10.97;;;;;;;;;;5032946;28;20430;-63
2021/09/07 02:08:07;;;;;;;16.00;11.10;;;;;;;;;;5031636;28;20493;-64
2021/09/07 02:10:33;;;;;;;16.40;10.93;;;;;;;;;;5015341;28;20486;-63
2021/09/07 02:12:59;;;;;;;12.30;10.13;;;;;;;;;;5026900;28;20941;-64
2021/09/07 02:15:26;;;;;;;16.37;10.13;;;;;;;;;;5033074;28;20502;-64
2021/09/07 02:17:52;;;;;;;12.57;10.17;;;;;;;;;;5031624;28;20395;-64
2021/09/07 02:20:18;;;;;;;14.77;9.73;;;;;;;;;;5013696;28;20461;-63
2021/09/07 02:22:44;;;;;;;13.10;10.20;;;;;;;;;;5013842;28;20400;-63
2021/09/07 02:25:10;;;;;;;14.77;10.87;;;;;;;;;;5031883;28;20442;-63
2021/09/07 02:27:36;;;;;;;13.00;9.33;;;;;;;;;;5033007;28;20425;-63
2021/09/07 02:30:03;;;;;;;13.07;9.80;;;;;;;;;;5032203;28;20852;-62
2021/09/07 02:32:29;;;;;;;16.10;10.97;;;;;;;;;;5034644;28;20942;-63
2021/09/07 02:34:55;;;;;;;16.00;10.40;;;;;;;;;;5019467;28;20427;-62
2021/09/07 02:37:22;;;;;;;15.70;9.00;;;;;;;;;;5026032;28;20860;-63
2021/09/07 02:39:48;;;;;;;17.03;10.23;;;;;;;;;;5033719;28;20431;-63
2021/09/07 02:42:14;;;;;;;12.10;9.90;;;;;;;;;;5034873;28;20407;-64
2021/09/07 02:44:40;;;;;;;13.60;9.53;;;;;;;;;;5031755;28;20430;-63
2021/09/07 02:47:06;;;;;;;14.40;9.53;;;;;;;;;;5016916;28;20489;-63
2021/09/07 02:49:32;;;;;;;14.73;10.83;;;;;;;;;;5027524;28;20938;-63
2021/09/07 02:51:58;;;;;;;15.07;10.03;;;;;;;;;;5018561;28;20553;-63
2021/09/07 02:54:25;;;;;;;14.07;9.43;;;;;;;;;;5014492;28;20570;-63
2021/09/07 02:56:51;;;;;;;17.63;10.80;;;;;;;;;;5016644;28;20866;-63
2021/09/07 02:59:17;;;;;;;18.67;10.33;;;;;;;;;;5022507;28;20471;-63
2021/09/07 03:01:43;;;;;;;16.17;10.90;;;;;;;;;;5036134;28;20482;-63
2021/09/07 03:04:09;;;;;;;15.13;10.70;;;;;;;;;;5031305;28;20999;-63
2021/09/07 03:06:35;;;;;;;14.63;9.73;;;;;;;;;;5016266;28;20538;-63
2021/09/07 03:09:01;;;;;;;16.57;10.63;;;;;;;;;;5018586;28;20438;-63
2021/09/07 03:11:27;;;;;;;17.70;11.57;;;;;;;;;;5035896;28;20973;-63
2021/09/07 03:13:53;;;;;;;11.40;9.27;;;;;;;;;;5033684;28;20399;-63
2021/09/07 03:16:19;;;;;;;19.27;10.53;;;;;;;;;;5015998;28;20783;-63
2021/09/07 03:18:45;;;;;;;13.90;10.90;;;;;;;;;;5015878;28;20407;-63
2021/09/07 03:21:11;;;;;;;12.80;8.97;;;;;;;;;;5018033;28;20415;-63
2021/09/07 03:23:37;;;;;;;12.77;9.40;;;;;;;;;;5035710;28;20411;-64
2021/09/07 03:26:03;;;;;;;12.17;9.70;;;;;;;;;;5015558;28;20521;-63
2021/09/07 03:28:29;;;;;;;12.30;9.23;;;;;;;;;;5015895;28;20408;-64
2021/09/07 03:30:55;;;;;;;12.90;9.40;;;;;;;;;;5031773;28;20469;-63
2021/09/07 03:33:21;;;;;;;13.93;9.77;;;;;;;;;;5035450;28;20469;-63
2021/09/07 03:35:47;;;;;;;11.10;8.60;;;;;;;;;;5018149;28;20506;-63
2021/09/07 03:38:13;;;;;;;22.87;9.70;;;;;;;;;;5015680;28;20407;-63
2021/09/07 03:40:39;;;;;;;12.33;9.13;;;;;;;;;;5028510;28;21020;-63
2021/09/07 03:43:05;;;;;;;15.20;10.73;;;;;;;;;;5034884;28;20411;-63
2021/09/07 03:45:31;;;;;;;18.60;10.50;;;;;;;;;;5034114;28;20446;-63
2021/09/07 03:47:57;;;;;;;15.73;11.00;;;;;;;;;;5035346;28;20409;-63
2021/09/07 03:50:23;;;;;;;15.10;9.53;;;;;;;;;;5016480;28;20807;-63
2021/09/07 03:52:49;;;;;;;17.30;12.30;;;;;;;;;;5035248;28;20399;-63
2021/09/07 03:55:15;;;;;;;12.50;10.20;;;;;;;;;;5033995;28;20447;-63
2021/09/07 03:57:41;;;;;;;12.43;9.70;;;;;;;;;;5017965;28;20402;-63
2021/09/07 04:00:08;;;;;;;13.57;9.90;;;;;;;;;;5024749;28;20427;-63
2021/09/07 04:02:34;;;;;;;15.27;10.63;;;;;;;;;;5022562;28;20517;-60
2021/09/07 04:05:00;;;;;;;14.67;11.30;;;;;;;;;;5034103;28;20857;-63
2021/09/07 04:07:26;;;;;;;12.63;8.70;;;;;;;;;;5035064;28;20403;-63
2021/09/07 04:09:52;;;;;;;13.50;9.13;;;;;;;;;;5033895;28;20439;-62
2021/09/07 04:12:18;;;;;;;18.53;10.53;;;;;;;;;;5034937;28;20788;-61
2021/09/07 04:14:44;;;;;;;14.27;10.53;;;;;;;;;;5033841;28;20477;-63
2021/09/07 04:17:11;;;;;;;14.53;9.00;;;;;;;;;;5035152;28;20403;-63
2021/09/07 04:19:37;;;;;;;14.63;10.37;;;;;;;;;;5016194;28;20438;-63
2021/09/07 04:22:03;;;;;;;13.73;11.60;;;;;;;;;;5034673;28;20501;-63
2021/09/07 04:24:29;;;;;;;14.27;10.43;;;;;;;;;;5033787;28;20449;-62
2021/09/07 04:26:55;;;;;;;17.30;10.83;;;;;;;;;;5035052;28;20443;-63
2021/09/07 04:29:21;;;;;;;15.37;10.17;;;;;;;;;;5033795;28;20917;-63
2021/09/07 04:31:48;;;;;;;18.50;10.30;;;;;;;;;;5034538;28;20939;-60
2021/09/07 04:34:14;;;;;;;14.40;10.03;;;;;;;;;;5033007;28;20834;-62
2021/09/07 04:36:40;;;;;;;13.37;9.70;;;;;;;;;;5014904;28;20434;-61
2021/09/07 04:39:06;;;;;;;15.60;10.10;;;;;;;;;;5014302;28;20483;-62
2021/09/07 04:41:32;;;;;;;13.07;9.97;;;;;;;;;;5014827;28;20470;-63
2021/09/07 04:43:58;;;;;;;13.57;9.17;;;;;;;;;;5014503;28;20435;-63
2021/09/07 04:46:24;;;;;;;16.70;11.60;;;;;;;;;;5032029;28;20450;-63
2021/09/07 04:48:54;;;;;;;13.47;9.97;;;;;;;;;;5034764;28;20465;-63
2021/09/07 04:51:21;;;;;;;14.67;10.07;;;;;;;;;;5033425;28;20831;-63
2021/09/07 04:53:47;;;;;;;12.60;8.70;;;;;;;;;;5034184;28;20407;-63
2021/09/07 04:56:13;;;;;;;11.47;8.97;;;;;;;;;;5033037;28;20446;-62
2021/09/07 04:58:39;;;;;;;15.43;9.43;;;;;;;;;;5034387;28;20494;-64
2021/09/07 05:01:06;;;;;;;18.90;9.90;;;;;;;;;;5032797;28;20426;-63
2021/09/07 05:03:32;;;;;;;14.30;11.20;;;;;;;;;;5034206;28;20418;-63
2021/09/07 05:05:58;;;;;;;12.80;9.00;;;;;;;;;;5019884;28;20439;-62
2021/09/07 05:08:24;;;;;;;17.53;11.53;;;;;;;;;;5015778;28;20891;-61
2021/09/07 05:10:50;;;;;;;19.83;10.77;;;;;;;;;;5030530;28;20454;-63
2021/09/07 05:13:16;;;;;;;15.90;11.40;;;;;;;;;;5034045;28;20769;-63
2021/09/07 05:15:42;;;;;;;17.87;11.23;;;;;;;;;;5022092;28;20821;-63
2021/09/07 05:18:08;;;;;;;14.23;9.63;;;;;;;;;;5013823;28;20435;-63
2021/09/07 05:20:34;;;;;;;15.30;10.77;;;;;;;;;;5013935;28;20412;-64
2021/09/07 05:23:00;;;;;;;16.70;10.60;;;;;;;;;;5013889;28;21021;-63
2021/09/07 05:25:28;;;;;;;14.20;9.50;;;;;;;;;;5020900;28;20459;-65
2021/09/07 05:27:54;;;;;;;14.20;10.10;;;;;;;;;;5033765;28;20382;-63
2021/09/07 05:30:21;;;;;;;15.20;9.97;;;;;;;;;;5025952;28;20418;-63
2021/09/07 05:32:47;;;;;;;16.13;10.90;;;;;;;;;;5003630;28;20423;-63
2021/09/07 05:35:13;;;;;;;21.17;9.87;;;;;;;;;;5019475;28;20442;-63
2021/09/07 05:37:40;;;;;;;15.30;10.57;;;;;;;;;;5033311;28;20398;-63
2021/09/07 05:40:08;;;;;;;15.03;8.60;;;;;;;;;;5031767;28;20422;-64
2021/09/07 05:42:34;;;;;;;12.10;9.10;;;;;;;;;;5014639;28;20805;-63
2021/09/07 05:45:00;;;;;;;15.30;9.70;;;;;;;;;;5028321;28;20430;-63
2021/09/07 05:47:26;;;;;;;12.40;8.40;;;;;;;;;;5013691;28;20396;-63
2021/09/07 05:49:52;;;;;;;14.90;8.93;;;;;;;;;;5015982;28;20418;-63
2021/09/07 05:52:18;;;;;;;15.03;9.63;;;;;;;;;;5033093;28;20973;-63
2021/09/07 05:54:44;;;;;;;10.27;8.60;;;;;;;;;;5032031;28;20453;-63
2021/09/07 05:57:10;;;;;;;14.87;8.50;;;;;;;;;;5033014;28;20977;-63
2021/09/07 05:59:36;;;;;;;15.90;9.13;;;;;;;;;;5032519;28;20529;-63
2021/09/07 06:02:02;;;;;;;11.47;8.87;;;;;;;;;;5013292;28;20411;-63
2021/09/07 06:04:28;;;;;;;19.57;10.13;;;;;;;;;;5013493;28;20392;-63
2021/09/07 06:06:54;;;;;;;18.30;9.97;;;;;;;;;;5012513;28;20443;-63
2021/09/07 06:09:20;;;;;;;14.03;8.90;;;;;;;;;;5028594;28;20919;-64
2021/09/07 06:11:46;;;;;;;15.90;9.27;;;;;;;;;;5035421;28;20461;-64
2021/09/07 06:14:12;;;;;;;15.90;9.53;;;;;;;;;;5029980;28;20421;-63
2021/09/07 06:16:38;;;;;;;18.03;10.83;;;;;;;;;;5029132;28;20435;-65
2021/09/07 06:19:04;;;;;;;23.57;14.03;;;;;;;;;;5021507;28;20403;-64
2021/09/07 06:21:31;;;;;;;18.80;11.80;;;;;;;;;;5026944;28;20973;-64
2021/09/07 06:23:57;;;;;;;12.80;8.50;;;;;;;;;;5032545;28;20501;-64
2021/09/07 06:26:23;;;;;;;15.60;9.57;;;;;;;;;;5022494;28;20485;-64
2021/09/07 06:28:49;;;;;;;11.40;8.07;;;;;;;;;;5014723;28;20437;-63
2021/09/07 06:31:15;;;;;;;17.00;9.70;;;;;;;;;;5022504;28;20455;-64
2021/09/07 06:33:41;;;;;;;15.50;9.03;;;;;;;;;;5023224;28;20423;-64
2021/09/07 06:36:07;;;;;;;14.57;9.67;;;;;;;;;;5028325;28;20517;-65
2021/09/07 06:38:33;;;;;;;18.63;8.60;;;;;;;;;;5030542;28;20525;-63
2021/09/07 06:40:59;;;;;;;12.50;8.77;;;;;;;;;;5029875;28;20861;-63
2021/09/07 06:43:25;;;;;;;15.43;7.83;;;;;;;;;;5031076;28;20506;-65
2021/09/07 06:45:51;;;;;;;12.80;8.77;;;;;;;;;;5027711;28;20455;-64
2021/09/07 06:48:17;;;;;;;15.63;8.50;;;;;;;;;;5025308;28;20415;-65
2021/09/07 06:50:43;;;;;;;15.47;8.00;;;;;;;;;;5026774;28;20454;-64
2021/09/07 06:53:09;;;;;;;10.90;7.97;;;;;;;;;;5028517;28;20853;-64
2021/09/07 06:55:38;;;;;;;9.80;8.17;;;;;;;;;;5023448;28;20434;-65
2021/09/07 06:58:04;;;;;;;12.30;9.07;;;;;;;;;;5010423;28;20436;-63
2021/09/07 07:00:30;;;;;;;11.37;8.60;;;;;;;;;;5023458;28;20862;-64
2021/09/07 07:02:56;;;;;;;16.50;9.00;;;;;;;;;;5029479;28;20411;-65
2021/09/07 07:05:24;;;;;;;13.70;8.43;;;;;;;;;;5030086;28;20438;-66
2021/09/07 07:07:50;;;;;;;11.87;7.37;;;;;;;;;;5028032;28;20410;-65
2021/09/07 07:10:16;;;;;;;15.20;9.53;;;;;;;;;;5028367;28;20486;-65
2021/09/07 07:12:42;;;;;;;17.90;8.30;;;;;;;;;;5027575;28;20481;-63
2021/09/07 07:15:09;;;;;;;12.50;7.93;;;;;;;;;;5011666;28;20609;-62
2021/09/07 07:17:35;;;;;;;13.03;8.17;;;;;;;;;;5012228;28;20427;-64
2021/09/07 07:20:01;;;;;;;15.43;8.40;;;;;;;;;;5031260;28;20415;-66
2021/09/07 07:22:27;;;;;;;14.80;9.27;;;;;;;;;;5029587;28;20434;-65
2021/09/07 07:24:53;;;;;;;12.57;8.20;;;;;;;;;;5032423;28;20923;-64
2021/09/07 07:27:19;;;;;;;14.07;8.50;;;;;;;;;;5032835;28;20437;-66
2021/09/07 07:29:45;;;;;;;14.07;8.60;;;;;;;;;;5024837;28;20453;-65
2021/09/07 07:32:11;;;;;;;12.60;8.00;;;;;;;;;;5014303;28;20895;-67
2021/09/07 07:34:37;;;;;;;10.73;7.67;;;;;;;;;;5029233;28;22192;-65
2021/09/07 07:37:05;;;;;;;12.33;7.97;;;;;;;;;;5030011;28;20492;-65
2021/09/07 07:39:31;;;;;;;10.30;7.10;;;;;;;;;;5030234;28;20492;-65
2021/09/07 07:41:57;;;;;;;9.87;7.07;;;;;;;;;;5031097;28;20813;-65
2021/09/07 07:44:23;;;;;;;10.70;7.10;;;;;;;;;;5013733;28;20434;-65
2021/09/07 07:46:50;;;;;;;10.10;7.70;;;;;;;;;;5028790;28;20525;-65
2021/09/07 07:49:16;;;;;;;11.30;7.30;;;;;;;;;;5032791;28;20462;-65
2021/09/07 07:51:42;;;;;;;10.67;7.63;;;;;;;;;;5028080;28;20911;-65
2021/09/07 07:54:09;;;;;;;11.47;8.87;;;;;;;;;;5032526;28;20406;-65
2021/09/07 07:56:36;;;;;;;14.50;9.07;;;;;;;;;;5027820;28;20450;-64
2021/09/07 07:59:02;;;;;;;10.90;8.53;;;;;;;;;;5032738;28;20464;-65
2021/09/07 08:01:28;;;;;;;10.30;8.07;;;;;;;;;;5030794;28;20461;-65
2021/09/07 08:03:54;;;;;;;15.03;7.53;;;;;;;;;;5014564;28;20501;-64
2021/09/07 08:06:20;;;;;;;11.67;9.07;;;;;;;;;;5031088;28;20442;-65
2021/09/07 08:08:46;;;;;;;11.83;7.80;;;;;;;;;;5032805;28;20469;-65
2021/09/07 08:11:12;;;;;;;10.40;7.37;;;;;;;;;;5030095;28;20465;-64
2021/09/07 08:13:38;;;;;;;11.77;7.57;;;;;;;;;;5028093;28;20429;-65
2021/09/07 08:16:04;;;;;;;9.97;7.97;;;;;;;;;;5028772;28;20438;-65
2021/09/07 08:18:30;;;;;;;13.10;8.80;;;;;;;;;;5030159;28;20426;-65
2021/09/07 08:20:56;;;;;;;11.07;7.67;;;;;;;;;;5030731;28;20434;-65
2021/09/07 08:23:22;;;;;;;10.20;8.17;;;;;;;;;;5030634;28;20899;-64
2021/09/07 08:25:48;;;;;;;13.87;7.90;;;;;;;;;;5029385;28;20604;-65
2021/09/07 08:28:14;;;;;;;11.07;7.80;;;;;;;;;;5029946;28;20439;-66
2021/09/07 08:30:40;;;;;;;9.77;7.67;;;;;;;;;;5031878;28;20849;-65
2021/09/07 08:33:16;;;;;;;10.77;7.90;;;;;;;;;;5031141;28;20430;-65
2021/09/07 08:35:43;;;;;;;10.47;7.00;;;;;;;;;;5032641;28;20442;-65
2021/09/07 08:38:10;;;;;;;10.50;7.50;;;;;;;;;;5030901;28;20426;-66
2021/09/07 08:40:36;;;;;;;9.67;8.10;;;;;;;;;;5031646;28;20937;-65
2021/09/07 08:43:03;;;;;;;9.67;7.53;;;;;;;;;;5014938;28;20449;-65
2021/09/07 08:45:29;;;;;;;9.93;7.67;;;;;;;;;;5018783;28;20520;-65
2021/09/07 08:47:57;;;;;;;9.53;7.80;;;;;;;;;;5030048;28;20509;-66
2021/09/07 08:50:23;;;;;;;9.97;6.80;;;;;;;;;;5028079;28;20505;-65
2021/09/07 08:52:49;;;;;;;14.07;8.37;;;;;;;;;;5029452;28;20457;-64
2021/09/07 08:55:15;;;;;;;9.40;7.00;;;;;;;;;;5029100;28;20457;-65
2021/09/07 08:57:42;;;;;;;9.60;6.53;;;;;;;;;;5028725;28;20514;-65
2021/09/07 09:00:08;;;;;;;10.73;7.27;;;;;;;;;;5029654;28;20911;-65
2021/09/07 09:02:44;;;;;;;12.37;7.63;;;;;;;;;;5027341;28;20426;-64
2021/09/07 09:05:11;;;;;;;9.13;7.70;;;;;;;;;;5031055;28;20438;-64
2021/09/07 09:07:38;;;;;;;9.90;7.70;;;;;;;;;;5030005;28;20429;-64
2021/09/07 09:10:04;;;;;;;8.57;7.20;;;;;;;;;;5031398;28;20423;-64
2021/09/07 09:12:36;;;;;;;9.30;6.43;;;;;;;;;;5028033;28;20468;-64
2021/09/07 09:15:09;;;;;;;16.03;6.80;;;;;;;;;;5025627;28;20919;-64
2021/09/07 09:17:35;;;;;;;9.70;6.47;;;;;;;;;;5026965;28;20911;-65
2021/09/07 09:20:06;;;;;;;10.87;7.67;;;;;;;;;;5031128;28;20918;-64
2021/09/07 09:22:46;;;;;;;8.70;7.47;;;;;;;;;;5030441;28;20430;-64
2021/09/07 09:25:24;;;;;;;9.50;6.20;;;;;;;;;;5028719;28;20462;-65
2021/09/07 09:27:56;;;;;;;8.10;5.97;;;;;;;;;;5028810;28;20439;-64
2021/09/07 09:30:25;;;;;;;11.23;6.97;;;;;;;;;;5031096;28;20425;-64
2021/09/07 09:32:51;;;;;;;7.73;6.03;;;;;;;;;;5030090;28;20474;-65
2021/09/07 09:35:18;;;;;;;7.57;5.90;;;;;;;;;;5028577;28;20445;-64
2021/09/07 09:37:53;;;;;;;11.17;6.87;;;;;;;;;;5026044;28;20485;-64
2021/09/07 09:40:19;;;;;;;7.47;5.77;;;;;;;;;;5025433;28;20418;-66
2021/09/07 09:42:48;;;;;;;10.40;7.00;;;;;;;;;;5028096;28;21014;-64
2021/09/07 09:45:13;;;;;;;7.53;5.50;;;;;;;;;;5028165;28;21387;-65
2021/09/07 09:47:44;;;;;;;8.10;5.40;;;;;;;;;;5017838;28;20481;-64
2021/09/07 09:50:11;;;;;;;10.27;5.53;;;;;;;;;;5029795;28;20410;-65
2021/09/07 09:52:38;;;;;;;10.57;5.93;;;;;;;;;;5011186;28;20469;-64
2021/09/07 09:55:05;;;;;;;8.13;5.67;;;;;;;;;;5030829;28;20429;-64
2021/09/07 09:57:32;;;;;;;8.00;6.30;;;;;;;;;;5026668;28;20414;-65
2021/09/07 09:59:59;;;;;;;7.57;6.50;;;;;;;;;;5030725;28;20914;-65
2021/09/07 10:02:26;;;;;;;10.03;6.70;;;;;;;;;;5005036;28;20426;-66
2021/09/07 10:04:53;;;;;;;7.37;6.17;;;;;;;;;;5026622;28;20425;-64
2021/09/07 10:07:19;;;;;;;7.07;5.57;;;;;;;;;;5029564;28;20435;-64
2021/09/07 10:09:48;;;;;;;8.80;6.50;;;;;;;;;;5028545;28;20433;-64
2021/09/07 10:12:24;;;;;;;9.53;6.10;;;;;;;;;;5029195;28;20462;-64
2021/09/07 10:15:02;;;;;;;11.17;7.20;;;;;;;;;;5029311;28;20532;-65
2021/09/07 10:23:54;;;;;;;7.40;6.07;;;;;;;;;;4994937;28;20429;-66
2021/09/07 10:26:43;;;;;;;6.87;4.87;;;;;;;;;;5022280;28;20492;-66
2021/09/07 10:29:09;;;;;;;6.73;5.50;;;;;;;;;;5017407;28;20430;-65
2021/09/07 10:31:39;;;;;;;8.67;6.60;;;;;;;;;;5030290;28;20527;-65
2021/09/07 10:34:05;;;;;;;7.93;5.90;;;;;;;;;;5026495;28;20434;-67
2021/09/07 10:36:34;;;;;;;10.37;7.00;;;;;;;;;;5027592;28;20479;-66
2021/09/07 10:39:02;;;;;;;10.30;6.50;;;;;;;;;;5028930;28;20422;-66
2021/09/07 10:41:34;;;;;;;9.60;6.30;;;;;;;;;;5030160;28;20425;-66
2021/09/07 10:44:04;;;;;;;7.97;6.03;;;;;;;;;;5029823;28;20492;-66
2021/09/07 10:46:40;;;;;;;9.90;7.20;;;;;;;;;;5030199;28;20442;-65
2021/09/07 10:49:18;;;;;;;6.63;5.43;;;;;;;;;;5018429;28;20422;-65
2021/09/07 10:52:03;;;;;;;10.50;5.90;;;;;;;;;;5030665;28;20456;-65
2021/09/07 10:54:29;;;;;;;7.73;6.20;;;;;;;;;;5030172;28;20418;-65
2021/09/07 10:56:57;;;;;;;7.37;6.37;;;;;;;;;;5033660;28;20436;-66
2021/09/07 10:59:41;;;;;;;8.00;5.20;;;;;;;;;;5031827;28;20485;-65
2021/09/07 11:02:26;;;;;;;7.43;6.20;;;;;;;;;;5031995;28;20425;-64
2021/09/07 11:04:52;;;;;;;7.63;6.03;;;;;;;;;;5032905;28;20442;-65
2021/09/07 11:07:33;;;;;;;8.50;6.10;;;;;;;;;;5032342;28;20414;-66
2021/09/07 11:09:59;;;;;;;10.30;6.60;;;;;;;;;;5031436;28;20576;-66
2021/09/07 11:12:26;;;;;;;10.97;6.27;;;;;;;;;;5033147;28;20496;-66
2021/09/07 11:15:02;;;;;;;7.53;5.77;;;;;;;;;;5031936;28;20423;-66
2021/09/07 11:17:28;;;;;;;7.90;6.30;;;;;;;;;;5031560;28;20461;-66
2021/09/07 11:19:57;;;;;;;9.07;5.83;;;;;;;;;;5030200;28;20422;-66
2021/09/07 11:22:30;;;;;;;7.10;5.20;;;;;;;;;;5031109;28;20449;-66
2021/09/07 11:25:07;;;;;;;10.77;5.60;;;;;;;;;;5032077;28;20430;-66
2021/09/07 11:27:47;;;;;;;9.43;6.30;;;;;;;;;;5031266;28;20756;-65
2021/09/07 11:30:30;;;;;;;8.77;5.30;;;;;;;;;;5032725;28;20426;-65
2021/09/07 11:33:02;;;;;;;7.00;5.40;;;;;;;;;;5033081;28;20419;-66
2021/09/07 11:35:28;;;;;;;8.27;6.87;;;;;;;;;;5026095;28;21073;-65
2021/09/07 11:38:01;;;;;;;8.90;6.43;;;;;;;;;;5033908;28;20469;-65
2021/09/07 11:40:28;;;;;;;7.70;5.70;;;;;;;;;;5032730;28;20448;-65
2021/09/07 11:42:54;;;;;;;8.40;6.00;;;;;;;;;;5030173;28;20945;-64
2021/09/07 11:45:27;;;;;;;8.67;6.13;;;;;;;;;;5028705;28;20442;-64
2021/09/07 11:47:54;;;;;;;8.30;6.53;;;;;;;;;;5031471;28;20463;-66
2021/09/07 11:50:21;;;;;;;6.17;4.60;;;;;;;;;;5031253;28;20419;-66
2021/09/07 11:52:48;;;;;;;7.60;6.13;;;;;;;;;;5033416;28;20512;-65
2021/09/07 11:55:32;;;;;;;7.50;6.00;;;;;;;;;;5031713;28;20481;-67
2021/09/07 11:57:58;;;;;;;9.27;6.30;;;;;;;;;;5031758;28;20409;-65
2021/09/07 12:00:24;;;;;;;10.53;5.80;;;;;;;;;;5025454;28;20505;-66
2021/09/07 12:03:09;;;;;;;9.97;6.83;;;;;;;;;;5033210;28;20418;-64
2021/09/07 12:05:51;;;;;;;7.83;6.30;;;;;;;;;;5023616;28;20958;-65
2021/09/07 12:08:17;;;;;;;7.27;5.83;;;;;;;;;;5032820;28;20782;-66
2021/09/07 12:10:55;;;;;;;8.67;5.60;;;;;;;;;;5027363;28;20504;-65
2021/09/07 12:13:22;;;;;;;7.07;6.13;;;;;;;;;;5034393;28;20758;-64
2021/09/07 12:15:49;;;;;;;7.20;5.70;;;;;;;;;;5008504;28;20458;-65
2021/09/07 12:18:30;;;;;;;7.07;5.90;;;;;;;;;;5016484;28;20395;-65
2021/09/07 12:21:09;;;;;;;6.37;5.47;;;;;;;;;;5028578;28;20550;-66
2021/09/07 12:23:36;;;;;;;7.00;5.73;;;;;;;;;;5031834;28;20418;-66
2021/09/07 12:26:03;;;;;;;7.50;5.77;;;;;;;;;;5030482;28;20516;-65
2021/09/07 12:28:30;;;;;;;8.97;6.13;;;;;;;;;;5028486;28;20423;-65
2021/09/07 12:31:11;;;;;;;8.27;6.10;;;;;;;;;;5030894;28;20458;-65
2021/09/07 12:33:42;;;;;;;7.07;5.47;;;;;;;;;;5031461;28;20413;-66
2021/09/07 12:36:08;;;;;;;8.60;6.33;;;;;;;;;;5037651;28;20524;-65
2021/09/07 12:38:34;;;;;;;10.60;6.00;;;;;;;;;;5032218;28;20399;-65
2021/09/07 12:41:06;;;;;;;8.03;4.83;;;;;;;;;;5023672;28;20450;-66
2021/09/07 12:43:33;;;;;;;7.90;5.33;;;;;;;;;;5012351;28;20513;-65
2021/09/07 12:46:01;;;;;;;7.63;6.27;;;;;;;;;;5026121;28;20461;-65
2021/09/07 12:48:27;;;;;;;10.33;5.47;;;;;;;;;;5029817;28;20437;-65
2021/09/07 12:50:53;;;;;;;9.70;5.90;;;;;;;;;;5027844;28;20454;-65
2021/09/07 12:53:24;;;;;;;12.40;5.90;;;;;;;;;;5024834;28;21002;-65
2021/09/07 12:55:50;;;;;;;6.00;5.37;;;;;;;;;;5028437;28;20438;-65
2021/09/07 12:58:16;;;;;;;7.80;5.43;;;;;;;;;;5028858;28;20455;-66
2021/09/07 13:00:43;;;;;;;6.83;5.43;;;;;;;;;;5025424;28;20854;-65
2021/09/07 13:03:12;;;;;;;7.43;5.57;;;;;;;;;;5025281;28;20476;-66
2021/09/07 13:05:39;;;;;;;7.60;5.70;;;;;;;;;;5023657;28;20836;-65
2021/09/07 13:08:05;;;;;;;6.93;5.50;;;;;;;;;;5029225;28;20414;-65
2021/09/07 13:10:31;;;;;;;14.13;5.67;;;;;;;;;;5029677;28;20847;-65
2021/09/07 13:12:57;;;;;;;6.90;5.80;;;;;;;;;;5031176;28;20516;-65
2021/09/07 13:15:23;;;;;;;7.77;5.37;;;;;;;;;;5027173;28;20435;-65
2021/09/07 13:17:49;;;;;;;8.13;5.60;;;;;;;;;;5030622;28;20429;-65
2021/09/07 13:20:15;;;;;;;6.83;5.17;;;;;;;;;;5029405;28;20417;-65
2021/09/07 13:22:41;;;;;;;7.67;6.40;;;;;;;;;;5030565;28;20475;-65
2021/09/07 13:25:08;;;;;;;7.33;5.60;;;;;;;;;;5029731;28;20457;-65
2021/09/07 13:27:34;;;;;;;6.90;5.53;;;;;;;;;;5029444;28;20509;-66
2021/09/07 13:30:00;;;;;;;6.83;5.13;;;;;;;;;;5030759;28;20513;-65
2021/09/07 13:32:26;;;;;;;7.43;5.80;;;;;;;;;;5033420;28;20529;-65
2021/09/07 13:34:52;;;;;;;6.23;5.63;;;;;;;;;;5032500;28;20406;-65
2021/09/07 13:37:18;;;;;;;7.33;5.83;;;;;;;;;;5022314;28;20433;-64
2021/09/07 13:39:44;;;;;;;6.97;5.60;;;;;;;;;;5030087;28;20953;-65
2021/09/07 13:42:10;;;;;;;8.73;5.37;;;;;;;;;;5028939;28;20427;-65
2021/09/07 13:44:36;;;;;;;7.20;5.93;;;;;;;;;;5030173;28;20429;-64
2021/09/07 13:47:03;;;;;;;9.07;5.87;;;;;;;;;;5029066;28;20462;-65
2021/09/07 13:49:29;;;;;;;7.87;5.43;;;;;;;;;;5029563;28;20783;-65
2021/09/07 13:51:55;;;;;;;8.07;5.43;;;;;;;;;;5030232;28;21013;-64
2021/09/07 13:54:22;;;;;;;7.53;5.53;;;;;;;;;;5031602;28;20411;-65
2021/09/07 13:56:48;;;;;;;7.63;5.63;;;;;;;;;;5012249;28;20868;-64
2021/09/07 13:59:14;;;;;;;7.40;5.50;;;;;;;;;;5031329;28;20406;-64
2021/09/07 14:01:40;;;;;;;8.00;6.07;;;;;;;;;;5027313;28;20442;-64
2021/09/07 14:04:06;;;;;;;8.03;5.40;;;;;;;;;;5028234;28;20771;-66
2021/09/07 14:06:32;;;;;;;7.13;5.67;;;;;;;;;;5028610;28;20450;-64
2021/09/07 14:08:58;;;;;;;6.67;5.07;;;;;;;;;;5030536;28;20406;-64
2021/09/07 14:11:24;;;;;;;7.43;5.60;;;;;;;;;;5030790;28;20459;-64
2021/09/07 14:13:50;;;;;;;8.93;6.13;;;;;;;;;;5031625;28;20945;-65
2021/09/07 14:16:16;;;;;;;7.87;6.43;;;;;;;;;;5023996;28;20525;-65
2021/09/07 14:18:42;;;;;;;8.00;5.93;;;;;;;;;;5026713;28;20430;-65
2021/09/07 14:21:08;;;;;;;8.40;6.30;;;;;;;;;;5011248;28;20414;-65
2021/09/07 14:23:34;;;;;;;6.87;5.73;;;;;;;;;;5027682;28;20438;-65
2021/09/07 14:26:00;;;;;;;7.70;5.87;;;;;;;;;;5030340;28;20556;-64
2021/09/07 14:28:26;;;;;;;7.87;6.77;;;;;;;;;;5025989;28;20869;-66
2021/09/07 14:30:52;;;;;;;8.30;6.17;;;;;;;;;;5032813;28;20428;-66
2021/09/07 14:33:18;;;;;;;9.63;5.23;;;;;;;;;;5030833;28;20497;-64
2021/09/07 14:35:45;;;;;;;7.70;6.37;;;;;;;;;;5035901;28;20482;-65
2021/09/07 14:38:11;;;;;;;8.87;6.70;;;;;;;;;;5032490;28;20421;-64